Авиационная погода в Киркенесе

Регион: 
Погода METAR: 
ENKR 282220Z 17005KT CAVOK 20/12 Q1021 RMK WIND 731FT 23020KT
Время наблюдения
2022-06-28T22:20:00Z
Температура C
20.0
Точка росы
12.0
Направление ветра
170
Скорость ветра (узлы)
5
Метео видимость
6.21
Облачность
CAVOK
Нижняя граница облачности (футы)
Явления погоды
Условия полета
VFR